Latest Weather Observations for Cape Nelson

IDV60801

Issued at 8:32 pm EDT Thursday 21 February 2019 (issued every 10 minutes, with the page automatically refreshed every 10 minutes)

About weather observations | Map of weather stations | Latest weather observations for VIC | Other Formats
Station Details ID: 090184 Name: CAPE NELSON LIGHTHOUSE Lat: -38.43 Lon: 141.54 Height: 45.4 m
Data from the previous 72 hours. | See also: Recent months at Cape Nelson
Date/Time
EDT
Temp
°C
App
Temp
°C
Dew
Point
°C
Rel
Hum
%
Delta-T
°C
Wind Press
QNH
hPa
Press
MSL
hPa
Rain since
9am
mm
Dir  Spd
km/h
Gust
km/h
Spd
kts
Gust
kts
21/08:30pm 15.7 - - - - SSE 13 22 7 12 1023.0 1022.9 0.0
21/08:00pm 15.9 - - - - S 11 17 6 9 1022.8 1022.7 0.0
21/07:30pm 16.3 - - - - S 13 17 7 9 1022.6 1022.5 0.0
21/07:00pm 16.9 - - - - S 11 17 6 9 1022.5 1022.4 0.0
21/06:30pm 16.9 - - - - S 7 13 4 7 1022.5 1022.4 0.0
21/06:00pm 17.1 - - - - S 15 20 8 11 1022.2 1022.1 0.0
21/05:30pm 17.5 - - - - S 13 19 7 10 1022.0 1021.9 0.0
21/05:00pm 17.3 - - - - S 19 24 10 13 1022.1 1022.0 0.0
21/04:30pm 17.0 - - - - S 20 26 11 14 1022.3 1022.2 0.0
21/04:00pm 18.2 - - - - S 15 24 8 13 1022.4 1022.3 0.0
21/03:30pm 17.8 - - - - S 19 22 10 12 1022.7 1022.6 0.0
21/03:00pm 17.5 - - - - S 15 24 8 13 1022.8 1022.7 0.0
21/02:30pm 17.3 - - - - SSE 13 20 7 11 1022.8 1022.7 0.0
21/02:00pm 18.1 - - - - SE 9 17 5 9 1022.8 1022.7 0.0
21/01:30pm 17.4 - - - - SSE 11 17 6 9 1022.8 1022.7 0.0
21/01:00pm 18.1 - - - - S 9 17 5 9 1022.9 1022.8 0.0
21/12:30pm 17.4 - - - - S 15 20 8 11 1022.8 1022.7 0.0
21/12:00pm 17.2 - - - - S 15 24 8 13 1022.7 1022.6 0.0
21/11:30am 16.8 - - - - SSE 11 20 6 11 1022.5 1022.4 0.0
21/11:00am 16.3 - - - - NW 9 19 5 10 1022.2 1022.1 0.0
21/10:30am 16.0 - - - - E 9 15 5 8 1022.2 1022.1 0.0
21/10:00am 15.7 - - - - SE 11 24 6 13 1021.9 1021.8 0.0
21/09:30am 15.8 - - - - E 9 17 5 9 1021.6 1021.5 0.0
21/09:00am 15.9 - - - - NE 13 20 7 11 1021.1 1021.0 0.0
21/08:30am 15.2 - - - - ENE 13 19 7 10 1020.7 1020.6 0.0
21/08:00am 15.3 - - - - SSE 15 24 8 13 1020.1 1020.0 0.0
21/07:30am 15.1 - - - - S 17 28 9 15 1019.8 1019.7 0.0
21/07:00am 15.2 - - - - S 17 28 9 15 1019.3 1019.2 0.0
21/06:30am 15.0 - - - - E 13 26 7 14 1019.0 1018.9 0.0
21/06:00am 15.1 - - - - SE 9 22 5 12 1018.8 1018.7 0.0
21/05:30am 15.3 - - - - ESE 11 17 6 9 1018.5 1018.4 0.0
21/05:00am 15.0 - - - - E 9 17 5 9 1018.5 1018.4 0.0
21/04:30am 15.1 - - - - ESE 11 20 6 11 1018.3 1018.2 0.0
21/04:00am 14.7 - - - - ESE 13 20 7 11 1018.3 1018.2 0.0
21/03:30am 14.7 - - - - ESE 13 22 7 12 1018.2 1018.1 0.0
21/03:00am 14.7 - - - - E 17 32 9 17 1018.2 1018.1 0.0
21/02:30am 15.0 - - - - NE 15 22 8 12 1018.4 1018.3 0.0
21/02:00am 15.3 - - - - SE 13 20 7 11 1018.6 1018.5 0.0
21/01:30am 15.1 - - - - ENE 11 20 6 11 1018.6 1018.5 0.0
21/01:00am 15.3 - - - - NNW 13 24 7 13 1018.6 1018.5 0.0
21/12:30am 14.8 - - - - N 9 15 5 8 1018.7 1018.6 0.0
21/12:00am 14.7 - - - - NE 9 15 5 8 1018.7 1018.6 0.0
 
Date/Time
EDT
Temp
°C
App
Temp
°C
Dew
Point
°C
Rel
Hum
%
Delta-T
°C
Wind Press
QNH
hPa
Press
MSL
hPa
Rain since
9am
mm
Dir  Spd
km/h
Gust
km/h
Spd
kts
Gust
kts
20/11:30pm 14.7 - - - - NNE 9 17 5 9 1018.9 1018.8 0.0
20/11:00pm 14.7 - - - - NE 11 20 6 11 1018.8 1018.7 0.0
20/10:30pm 15.0 - - - - SSE 13 22 7 12 1018.6 1018.5 0.0
20/10:00pm 15.2 - - - - NE 15 22 8 12 1018.2 1018.1 0.0
20/09:30pm 15.9 - - - - NNW 19 33 10 18 1017.7 1017.6 0.0
20/09:00pm 15.9 - - - - WSW 28 37 15 20 1017.7 1017.6 0.0
20/08:30pm 15.7 - - - - NNW 15 24 8 13 1017.5 1017.4 0.0
20/08:00pm 15.9 - - - - NNE 13 24 7 13 1017.2 1017.1 0.0
20/07:30pm 16.5 - - - - NE 13 22 7 12 1016.9 1016.8 0.0
20/07:00pm 16.5 - - - - N 15 24 8 13 1016.8 1016.7 0.0
20/06:30pm 17.2 - - - - W 17 24 9 13 1016.6 1016.5 0.0
20/06:00pm 17.1 - - - - WNW 17 28 9 15 1016.3 1016.2 0.0
20/05:30pm 17.6 - - - - NW 17 26 9 14 1016.1 1016.0 0.0
20/05:00pm 17.8 - - - - NNE 19 32 10 17 1015.8 1015.7 0.0
20/04:30pm 17.4 - - - - WNW 24 43 13 23 1015.7 1015.6 0.0
20/04:00pm 17.9 - - - - W 26 39 14 21 1016.0 1015.9 0.0
20/03:30pm 17.8 - - - - W 33 44 18 24 1016.0 1015.9 0.0
20/03:06pm 18.0 - - - - W 28 46 15 25 1016.0 1015.9 0.0
20/03:00pm 18.0 - - - - W 28 43 15 23 1016.1 1016.0 0.0
20/02:30pm 18.6 - - - - W 22 35 12 19 1016.1 1016.0 0.0
20/02:00pm 18.5 - - - - W 20 32 11 17 1015.9 1015.8 0.0
20/01:30pm 18.4 - - - - W 26 39 14 21 1016.0 1015.9 0.0
20/01:00pm 17.7 - - - - W 20 33 11 18 1016.1 1016.0 0.0
20/12:30pm 16.4 - - - - W 17 24 9 13 1016.3 1016.2 0.0
20/12:00pm 15.7 - - - - NE 17 30 9 16 1016.4 1016.3 0.0
20/11:30am 17.3 - - - - WNW 20 43 11 23 1016.2 1016.1 0.0
20/11:00am 17.3 - - - - WSW 26 35 14 19 1016.2 1016.1 0.0
20/10:30am 16.8 - - - - WSW 24 37 13 20 1015.9 1015.8 0.0
20/10:00am 16.5 - - - - WSW 30 39 16 21 1015.7 1015.6 0.0
20/09:30am 16.1 - - - - W 22 35 12 19 1015.5 1015.4 0.0
20/09:00am 15.5 - - - - W 22 41 12 22 1015.4 1015.3 0.0
20/08:30am 14.7 - - - - W 35 50 19 27 1015.1 1015.0 0.0
20/08:18am 15.6 - - - - W 28 48 15 26 1014.9 1014.8 0.0
20/08:00am 15.9 - - - - W 24 39 13 21 1014.7 1014.6 0.0
20/07:30am 15.9 - - - - WSW 28 43 15 23 1014.5 1014.4 0.0
20/07:00am 16.2 - - - - WSW 28 43 15 23 1014.2 1014.1 0.0
20/06:30am 15.9 - - - - W 26 35 14 19 1013.9 1013.8 0.0
20/06:00am 16.1 - - - - W 20 32 11 17 1013.8 1013.7 0.0
20/05:30am 15.4 - - - - W 28 37 15 20 1014.0 1013.9 0.0
20/05:05am 15.8 - - - - W 28 52 15 28 1013.8 1013.7 0.0
20/05:00am 16.0 - - - - W 26 41 14 22 1013.9 1013.8 0.0
20/04:30am 16.2 - - - - W 28 44 15 24 1014.0 1013.9 0.0
20/04:00am 16.3 - - - - WSW 32 41 17 22 1014.0 1013.9 0.0
20/03:30am 16.2 - - - - W 26 32 14 17 1014.1 1014.0 0.0
20/03:00am 16.0 - - - - W 24 39 13 21 1014.3 1014.2 0.0
20/02:56am 16.0 - - - - W 28 46 15 25 1014.4 1014.3 0.0
20/02:30am 15.9 - - - - W 24 39 13 21 1014.5 1014.4 0.0
20/02:00am 15.9 - - - - W 26 41 14 22 1014.9 1014.8 0.0
20/01:30am 15.9 - - - - W 28 37 15 20 1015.1 1015.0 0.0
20/01:00am 16.0 - - - - W 26 35 14 19 1015.1 1015.0 0.0
20/12:30am 15.8 - - - - W 24 39 13 21 1015.2 1015.1 0.0
20/12:00am 15.6 - - - - W 20 28 11 15 1015.3 1015.2 0.0
 
Date/Time
EDT
Temp
°C
App
Temp
°C
Dew
Point
°C
Rel
Hum
%
Delta-T
°C
Wind Press
QNH
hPa
Press
MSL
hPa
Rain since
9am
mm
Dir  Spd
km/h
Gust
km/h
Spd
kts
Gust
kts
19/11:30pm 15.6 - - - - W 19 28 10 15 1015.6 1015.5 0.0
19/11:00pm 15.6 - - - - W 28 33 15 18 1015.8 1015.7 0.0
19/10:30pm 15.5 - - - - W 22 33 12 18 1015.5 1015.4 0.0
19/10:00pm 15.6 - - - - WSW 26 33 14 18 1015.4 1015.3 0.0
19/09:30pm 15.6 - - - - WSW 24 32 13 17 1015.1 1015.0 0.0
19/09:00pm 15.7 - - - - WSW 20 30 11 16 1015.0 1014.9 0.0
19/08:30pm 15.8 - - - - W 19 30 10 16 1015.0 1014.9 0.0
19/08:00pm 15.8 - - - - W 19 28 10 15 1014.7 1014.6 0.0
19/07:30pm 16.2 - - - - W 17 26 9 14 1014.5 1014.4 0.0
19/07:00pm 16.3 - - - - W 24 32 13 17 1014.5 1014.4 0.0
19/06:30pm 16.9 - - - - WNW 19 32 10 17 1014.4 1014.3 0.0
19/06:00pm 16.5 - - - - W 22 33 12 18 1014.5 1014.4 0.0
19/05:30pm 16.6 - - - - WSW 28 37 15 20 1014.4 1014.3 0.0
19/05:00pm 16.5 - - - - W 19 26 10 14 1014.2 1014.1 0.0
19/04:30pm 16.3 - - - - W 24 32 13 17 1014.3 1014.2 0.0
19/04:00pm 16.7 - - - - WSW 24 33 13 18 1014.4 1014.3 0.0
19/03:30pm 16.8 - - - - W 24 35 13 19 1014.4 1014.3 0.0
19/03:00pm 17.0 - - - - W 19 32 10 17 1014.6 1014.5 0.0
19/02:30pm 16.9 - - - - W 22 30 12 16 1014.7 1014.6 0.0
19/02:00pm 18.0 - - - - WNW 15 24 8 13 1014.5 1014.4 0.0
19/01:30pm 18.7 - - - - NW 13 20 7 11 1014.5 1014.4 0.0
19/01:00pm 17.9 - - - - NNE 13 24 7 13 1014.5 1014.4 0.0
19/12:30pm 17.6 - - - - NNE 13 20 7 11 1014.7 1014.6 0.0
19/12:00pm 16.3 - - - - ESE 15 30 8 16 1014.6 1014.5 0.0
19/11:30am 17.2 - - - - NE 15 33 8 18 1014.3 1014.2 0.0
19/11:00am 17.9 - - - - NE 15 24 8 13 1014.0 1013.9 0.0
19/10:30am 16.6 - - - - NNE 17 28 9 15 1013.7 1013.6 0.0
19/10:00am 16.3 - - - - NE 17 26 9 14 1013.5 1013.4 0.0
19/09:30am 15.7 - - - - SE 17 33 9 18 1013.3 1013.2 0.0
19/09:00am 14.9 - - - - ESE 19 32 10 17 1013.0 1012.9 0.0
19/08:30am 14.9 - - - - ENE 19 33 10 18 1012.5 1012.4 0.0
19/08:00am 15.4 - - - - NNW 17 32 9 17 1012.3 1012.2 0.0
19/07:30am 14.8 - - - - NNW 17 24 9 13 1012.0 1011.9 0.0
19/07:00am 14.7 - - - - N 17 28 9 15 1011.7 1011.6 0.0
19/06:30am 14.9 - - - - E 19 32 10 17 1011.4 1011.3 0.0
19/06:07am 15.5 - - - - WSW 30 48 16 26 1011.5 1011.4 0.0
19/06:00am 15.4 - - - - WSW 33 44 18 24 1011.6 1011.5 0.0
19/05:30am 15.4 - - - - W 26 39 14 21 1011.4 1011.3 0.0
19/05:00am 15.2 - - - - W 30 41 16 22 1011.5 1011.4 0.0
19/04:30am 14.9 - - - - WNW 22 41 12 22 1011.5 1011.4 0.0
19/04:00am 14.5 - - - - N 19 30 10 16 1011.4 1011.3 0.0
19/03:48am 15.7 - - - - WSW 35 54 19 29 1011.5 1011.4 0.0
19/03:30am 15.4 - - - - WSW 32 44 17 24 1011.6 1011.5 0.0
19/03:00am 15.6 - - - - W 30 41 16 22 1011.6 1011.5 0.0
19/02:30am 15.3 - - - - WSW 28 37 15 20 1011.8 1011.7 0.0
19/02:00am 15.4 - - - - WSW 32 41 17 22 1012.0 1011.9 0.0
19/01:30am 15.4 - - - - W 26 41 14 22 1012.0 1011.9 0.0
19/01:00am 14.9 - - - - WNW 17 33 9 18 1011.8 1011.7 0.0
19/12:30am 15.5 - - - - NW 19 30 10 16 1011.8 1011.7 0.0
19/12:00am 15.2 - - - - WNW 20 35 11 19 1011.9 1011.8 0.0
 
Date/Time
EDT
Temp
°C
App
Temp
°C
Dew
Point
°C
Rel
Hum
%
Delta-T
°C
Wind Press
QNH
hPa
Press
MSL
hPa
Rain since
9am
mm
Dir  Spd
km/h
Gust
km/h
Spd
kts
Gust
kts
18/11:30pm 15.0 - - - - WNW 20 33 11 18 1011.7 1011.6 0.0
18/11:00pm 15.2 - - - - NW 17 30 9 16 1011.7 1011.6 0.0
18/10:30pm 15.3 - - - - NW 17 26 9 14 1011.7 1011.6 0.0
18/10:00pm 15.6 - - - - NW 20 33 11 18 1011.6 1011.5 0.0
18/09:30pm 15.8 - - - - W 28 41 15 22 1011.4 1011.3 0.0
18/09:00pm 15.6 - - - - WNW 26 37 14 20 1011.0 1010.9 0.0

Other formats

Comma delimited format used in spreadsheet applications
http://www.bom.gov.au/fwo/IDV60801/IDV60801.94826.axf

JavaScript Object Notation format (JSON) in row-major order
http://www.bom.gov.au/fwo/IDV60801/IDV60801.94826.json

Data quality

Most of these data are generated automatically and are frequently updated. Quality checks on data are not normally performed. It is possible for incorrect values to appear. Refer to information at About Latest Weather Observations and please check the disclaimer before using these data.